Time;durP1;ratioP1;P1;durP2;ratioP2;P2;SDS_P1;SDS_P2;PMS_P1;PMS_P2;Temp;Humidity;BMP_temperature;BMP_pressure;BME280_temperature;BME280_humidity;BME280_pressure;Samples;Min_cycle;Max_cycle;Signal;HPM_P1;HPM_P2
2023/02/04 00:00:14;;;;;;;3.13;2.78;;;;;;;;;;4965032;28;20035;-79
2023/02/04 00:02:41;;;;;;;3.05;2.75;;;;;;;;;;4962239;28;20027;-79
2023/02/04 00:05:16;;;;;;;3.95;2.83;;;;;;;;;;4962414;29;20059;-77
2023/02/04 00:07:41;;;;;;;3.28;2.83;;;;;;;;;;4963538;29;20031;-80
2023/02/04 00:10:08;;;;;;;3.50;3.10;;;;;;;;;;4963443;28;20051;-78
2023/02/04 00:12:36;;;;;;;4.35;2.83;;;;;;;;;;4961390;28;20038;-79
2023/02/04 00:15:02;;;;;;;2.88;2.42;;;;;;;;;;4961974;29;20095;-79
2023/02/04 00:17:32;;;;;;;3.08;2.78;;;;;;;;;;4945404;29;20098;-79
2023/02/04 00:20:02;;;;;;;4.70;2.70;;;;;;;;;;4961780;28;20402;-79
2023/02/04 00:22:29;;;;;;;4.32;2.80;;;;;;;;;;4962915;29;20035;-78
2023/02/04 00:24:55;;;;;;;3.65;2.63;;;;;;;;;;4948224;29;20118;-78
2023/02/04 00:27:23;;;;;;;3.17;2.53;;;;;;;;;;4964479;28;20031;-79
2023/02/04 00:29:48;;;;;;;2.75;2.50;;;;;;;;;;4946407;29;20026;-79
2023/02/04 00:32:14;;;;;;;2.58;2.10;;;;;;;;;;4950834;29;20031;-79
2023/02/04 00:34:40;;;;;;;4.38;2.92;;;;;;;;;;4962931;28;20027;-77
2023/02/04 00:37:05;;;;;;;2.60;2.40;;;;;;;;;;4968509;28;20031;-78
2023/02/04 00:39:32;;;;;;;3.50;2.80;;;;;;;;;;4965408;28;20062;-79
2023/02/04 00:41:58;;;;;;;3.95;2.80;;;;;;;;;;4963087;29;20549;-79
2023/02/04 00:44:26;;;;;;;3.22;2.58;;;;;;;;;;4943917;29;20035;-78
2023/02/04 00:46:57;;;;;;;4.10;2.78;;;;;;;;;;4967047;28;20066;-78
2023/02/04 00:49:23;;;;;;;3.42;2.70;;;;;;;;;;4956180;28;20093;-79
2023/02/04 00:51:50;;;;;;;4.50;3.40;;;;;;;;;;4949295;29;20019;-79
2023/02/04 00:54:18;;;;;;;4.03;2.72;;;;;;;;;;4953295;29;20046;-77
2023/02/04 00:56:46;;;;;;;3.22;2.65;;;;;;;;;;4952252;29;20033;-78
2023/02/04 00:59:12;;;;;;;3.22;2.80;;;;;;;;;;4952424;29;20057;-78
2023/02/04 01:01:38;;;;;;;5.05;2.72;;;;;;;;;;4955642;28;20039;-76
2023/02/04 01:04:06;;;;;;;4.43;2.95;;;;;;;;;;4972359;29;20034;-78
2023/02/04 01:06:31;;;;;;;3.35;2.88;;;;;;;;;;4973266;28;20142;-78
2023/02/04 01:09:00;;;;;;;4.13;2.67;;;;;;;;;;4960051;29;20072;-76
2023/02/04 01:11:26;;;;;;;4.18;2.83;;;;;;;;;;4975489;28;20088;-76
2023/02/04 01:13:52;;;;;;;5.13;3.40;;;;;;;;;;4976520;28;20780;-76
2023/02/04 01:16:19;;;;;;;4.28;3.05;;;;;;;;;;4968738;28;20023;-79
2023/02/04 01:18:47;;;;;;;3.80;3.08;;;;;;;;;;4961071;28;20090;-79
2023/02/04 01:21:12;;;;;;;3.35;2.40;;;;;;;;;;4961628;29;20094;-78
2023/02/04 01:23:38;;;;;;;4.05;2.70;;;;;;;;;;4960193;28;20028;-80
2023/02/04 01:26:04;;;;;;;4.38;2.90;;;;;;;;;;4944490;29;20091;-80
2023/02/04 01:28:29;;;;;;;3.35;2.63;;;;;;;;;;4962785;28;20059;-78
2023/02/04 01:30:56;;;;;;;3.33;2.97;;;;;;;;;;4963388;28;20039;-77
2023/02/04 01:33:24;;;;;;;4.57;3.38;;;;;;;;;;4946479;28;20020;-78
2023/02/04 01:35:49;;;;;;;4.32;2.85;;;;;;;;;;4963002;28;20031;-78
2023/02/04 01:38:14;;;;;;;3.90;3.00;;;;;;;;;;4963773;29;20054;-79
2023/02/04 01:40:41;;;;;;;4.47;2.88;;;;;;;;;;4964856;28;20023;-78
2023/02/04 01:43:06;;;;;;;3.50;2.60;;;;;;;;;;4964362;29;20031;-79
2023/02/04 01:45:35;;;;;;;5.53;2.90;;;;;;;;;;4966780;28;20050;-76
2023/02/04 01:48:05;;;;;;;3.70;2.58;;;;;;;;;;4972892;28;20027;-79
2023/02/04 01:50:31;;;;;;;4.60;2.80;;;;;;;;;;4974060;28;20035;-77
2023/02/04 01:52:57;;;;;;;6.90;2.92;;;;;;;;;;4943798;29;20087;-80
2023/02/04 01:55:26;;;;;;;3.67;2.80;;;;;;;;;;4959403;28;20031;-79
2023/02/04 01:57:52;;;;;;;3.80;2.90;;;;;;;;;;4960526;29;20027;-77
2023/02/04 02:00:31;;;;;;;6.55;3.38;;;;;;;;;;4959982;28;20093;-78
2023/02/04 02:02:58;;;;;;;4.28;3.00;;;;;;;;;;4961646;28;20098;-77
2023/02/04 02:05:32;;;;;;;4.07;2.63;;;;;;;;;;4960304;28;20038;-77
2023/02/04 02:08:02;;;;;;;5.68;3.25;;;;;;;;;;4959492;29;20030;-79
2023/02/04 02:10:28;;;;;;;4.55;2.58;;;;;;;;;;4958998;29;20023;-78
2023/02/04 02:12:54;;;;;;;3.97;2.63;;;;;;;;;;4959321;28;20111;-78
2023/02/04 02:15:20;;;;;;;7.90;2.80;;;;;;;;;;4959375;29;20055;-79
2023/02/04 02:17:48;;;;;;;4.63;3.20;;;;;;;;;;4960245;28;20023;-78
2023/02/04 02:20:16;;;;;;;6.32;2.60;;;;;;;;;;4942218;29;20035;-79
2023/02/04 02:22:57;;;;;;;4.40;2.75;;;;;;;;;;4958241;29;20019;-79
2023/02/04 02:25:22;;;;;;;5.05;2.88;;;;;;;;;;4943351;29;20035;-77
2023/02/04 02:27:48;;;;;;;2.83;2.30;;;;;;;;;;4961924;29;20023;-79
2023/02/04 02:30:18;;;;;;;4.00;2.53;;;;;;;;;;4962264;29;20027;-78
2023/02/04 02:32:45;;;;;;;2.80;2.35;;;;;;;;;;4942040;29;20023;-78
2023/02/04 02:35:12;;;;;;;4.28;1.90;;;;;;;;;;4958912;29;20118;-79
2023/02/04 02:37:37;;;;;;;4.35;1.88;;;;;;;;;;4961548;29;20110;-78
2023/02/04 02:40:04;;;;;;;3.72;1.60;;;;;;;;;;4944044;29;20603;-78
2023/02/04 02:42:30;;;;;;;2.42;1.60;;;;;;;;;;4961447;29;20061;-77
2023/02/04 02:44:56;;;;;;;4.82;2.10;;;;;;;;;;4962416;29;20598;-78
2023/02/04 02:47:23;;;;;;;7.20;1.92;;;;;;;;;;4948722;28;20035;-78
2023/02/04 02:49:51;;;;;;;6.57;2.28;;;;;;;;;;4962400;28;20023;-79
2023/02/04 02:52:18;;;;;;;3.88;2.13;;;;;;;;;;4960801;29;20027;-77
2023/02/04 02:54:46;;;;;;;7.28;2.83;;;;;;;;;;4960291;29;20027;-78
2023/02/04 02:57:14;;;;;;;6.63;2.30;;;;;;;;;;4958510;29;20043;-78
2023/02/04 02:59:40;;;;;;;6.13;2.08;;;;;;;;;;4961017;29;20056;-77
2023/02/04 03:02:06;;;;;;;4.20;1.98;;;;;;;;;;4958684;29;20031;-77
2023/02/04 03:04:38;;;;;;;4.88;2.08;;;;;;;;;;4961075;29;20027;-78
2023/02/04 03:07:04;;;;;;;4.03;2.00;;;;;;;;;;4961063;29;20024;-78
2023/02/04 03:09:32;;;;;;;7.05;2.20;;;;;;;;;;4960713;28;20095;-77
2023/02/04 03:11:57;;;;;;;7.13;2.30;;;;;;;;;;4965172;28;20059;-76
2023/02/04 03:14:24;;;;;;;4.50;2.35;;;;;;;;;;4964429;28;20035;-77
2023/02/04 03:16:50;;;;;;;8.70;2.38;;;;;;;;;;4968985;28;20031;-78
2023/02/04 03:19:18;;;;;;;9.32;2.80;;;;;;;;;;4968781;28;20066;-78
2023/02/04 03:21:47;;;;;;;5.05;2.00;;;;;;;;;;4962654;28;20043;-79
2023/02/04 03:24:13;;;;;;;3.70;2.30;;;;;;;;;;4963980;28;20036;-78
2023/02/04 03:26:41;;;;;;;8.30;2.58;;;;;;;;;;4964692;28;20051;-76
2023/02/04 03:29:08;;;;;;;13.85;2.83;;;;;;;;;;4965637;28;20027;-78
2023/02/04 03:31:34;;;;;;;10.10;3.03;;;;;;;;;;4969382;28;20023;-77
2023/02/04 03:33:59;;;;;;;9.80;2.63;;;;;;;;;;4966783;28;20027;-77
2023/02/04 03:36:25;;;;;;;9.82;2.55;;;;;;;;;;4966859;28;20766;-76
2023/02/04 03:38:51;;;;;;;5.38;2.63;;;;;;;;;;4956197;29;20038;-75
2023/02/04 03:41:19;;;;;;;9.48;2.55;;;;;;;;;;4945064;29;20047;-79
2023/02/04 03:43:44;;;;;;;10.75;2.60;;;;;;;;;;4951051;29;20035;-77
2023/02/04 03:46:13;;;;;;;6.93;2.30;;;;;;;;;;4970154;28;20418;-77
2023/02/04 03:48:38;;;;;;;7.63;2.58;;;;;;;;;;4974046;28;20046;-78
2023/02/04 03:51:04;;;;;;;7.80;3.42;;;;;;;;;;4976985;28;20023;-77
2023/02/04 03:53:32;;;;;;;7.35;3.13;;;;;;;;;;4980217;28;20024;-77
2023/02/04 03:55:57;;;;;;;7.22;2.90;;;;;;;;;;4974328;28;20078;-78
2023/02/04 03:58:25;;;;;;;15.90;4.07;;;;;;;;;;4972652;28;20091;-78
2023/02/04 04:00:50;;;;;;;7.88;3.13;;;;;;;;;;4953297;29;20020;-78
2023/02/04 04:03:16;;;;;;;6.68;3.08;;;;;;;;;;4972077;28;20585;-76
2023/02/04 04:05:41;;;;;;;5.72;2.83;;;;;;;;;;4972563;28;20055;-77
2023/02/04 04:08:07;;;;;;;9.73;3.03;;;;;;;;;;4972153;28;20083;-76
2023/02/04 04:10:32;;;;;;;7.90;2.72;;;;;;;;;;4961975;28;20086;-78
2023/02/04 04:12:57;;;;;;;8.15;3.00;;;;;;;;;;4961502;28;20051;-78
2023/02/04 04:15:24;;;;;;;12.35;3.40;;;;;;;;;;4959668;28;20618;-78
2023/02/04 04:17:49;;;;;;;10.90;3.53;;;;;;;;;;4959067;28;20037;-80
2023/02/04 04:20:15;;;;;;;9.55;3.60;;;;;;;;;;4942192;29;20125;-80
2023/02/04 04:22:40;;;;;;;9.40;3.30;;;;;;;;;;4958937;29;20062;-79
2023/02/04 04:25:09;;;;;;;7.50;3.53;;;;;;;;;;4959351;29;20034;-79
2023/02/04 04:27:36;;;;;;;12.80;3.40;;;;;;;;;;4959399;29;20063;-78
2023/02/04 04:30:03;;;;;;;11.52;3.88;;;;;;;;;;4964090;28;20288;-78
2023/02/04 04:32:28;;;;;;;11.70;3.33;;;;;;;;;;4958654;28;20102;-78
2023/02/04 04:34:58;;;;;;;10.48;3.50;;;;;;;;;;4945100;29;20035;-79
2023/02/04 04:37:24;;;;;;;14.68;4.10;;;;;;;;;;4940735;29;20053;-80
2023/02/04 04:39:49;;;;;;;11.70;3.33;;;;;;;;;;4941703;29;20023;-78
2023/02/04 04:42:14;;;;;;;7.95;3.03;;;;;;;;;;4957474;29;20493;-75
2023/02/04 04:44:40;;;;;;;10.13;3.10;;;;;;;;;;4958186;29;20107;-78
2023/02/04 04:47:05;;;;;;;7.20;3.20;;;;;;;;;;4959093;28;20051;-79
2023/02/04 04:49:31;;;;;;;8.70;3.40;;;;;;;;;;4961217;28;20030;-78
2023/02/04 04:51:56;;;;;;;5.72;3.30;;;;;;;;;;4957477;29;20027;-80
2023/02/04 04:54:24;;;;;;;7.30;2.80;;;;;;;;;;4961766;28;20037;-79
2023/02/04 04:56:49;;;;;;;7.65;3.75;;;;;;;;;;4959357;29;20114;-79
2023/02/04 04:59:15;;;;;;;7.35;4.07;;;;;;;;;;4959433;29;20471;-78
2023/02/04 05:01:40;;;;;;;9.88;3.47;;;;;;;;;;4943161;29;20019;-78
2023/02/04 05:04:06;;;;;;;6.82;3.63;;;;;;;;;;4961074;28;20509;-77
2023/02/04 05:06:32;;;;;;;7.43;4.43;;;;;;;;;;4958186;29;20038;-76
2023/02/04 05:08:59;;;;;;;7.88;3.97;;;;;;;;;;4959977;29;20035;-76
2023/02/04 05:11:25;;;;;;;7.90;4.30;;;;;;;;;;4958673;29;20071;-76
2023/02/04 05:13:50;;;;;;;6.30;3.90;;;;;;;;;;4960367;29;20038;-79
2023/02/04 05:16:17;;;;;;;6.55;4.18;;;;;;;;;;4959515;28;20024;-78
2023/02/04 05:18:43;;;;;;;6.05;4.15;;;;;;;;;;4958898;28;20046;-78
2023/02/04 05:21:08;;;;;;;8.63;3.28;;;;;;;;;;4958224;29;20034;-76
2023/02/04 05:23:36;;;;;;;6.35;3.00;;;;;;;;;;4958875;29;20055;-78
2023/02/04 05:26:02;;;;;;;7.03;3.45;;;;;;;;;;4941398;29;20166;-79
2023/02/04 05:28:27;;;;;;;8.07;3.13;;;;;;;;;;4963432;28;20606;-78
2023/02/04 05:30:52;;;;;;;8.27;3.13;;;;;;;;;;4958298;29;20389;-77
2023/02/04 05:33:18;;;;;;;8.38;3.65;;;;;;;;;;4958999;28;20571;-80
2023/02/04 05:35:43;;;;;;;6.07;2.80;;;;;;;;;;4960177;29;20236;-80
2023/02/04 05:38:09;;;;;;;9.07;4.18;;;;;;;;;;4941077;29;20027;-79
2023/02/04 05:40:34;;;;;;;12.43;4.10;;;;;;;;;;4959228;29;20039;-79
2023/02/04 05:43:00;;;;;;;18.65;5.70;;;;;;;;;;4958919;28;20023;-80
2023/02/04 05:45:25;;;;;;;21.92;8.00;;;;;;;;;;4959292;28;20035;-78
2023/02/04 05:47:51;;;;;;;23.63;7.28;;;;;;;;;;4944889;29;20031;-79
2023/02/04 05:50:16;;;;;;;19.52;7.45;;;;;;;;;;4965012;28;20663;-77
2023/02/04 05:52:42;;;;;;;13.68;4.65;;;;;;;;;;4960365;29;20071;-79
2023/02/04 05:55:11;;;;;;;11.77;4.20;;;;;;;;;;4940327;29;20062;-78
2023/02/04 05:57:38;;;;;;;44.03;11.05;;;;;;;;;;4959680;29;20035;-77
2023/02/04 06:00:05;;;;;;;74.72;17.60;;;;;;;;;;4960471;28;20118;-77
2023/02/04 06:02:30;;;;;;;99.43;24.08;;;;;;;;;;4963456;28;20114;-79
2023/02/04 06:04:59;;;;;;;77.65;18.90;;;;;;;;;;4963808;28;20054;-78
2023/02/04 06:07:24;;;;;;;68.65;16.55;;;;;;;;;;4960990;29;20042;-78
2023/02/04 06:09:49;;;;;;;67.68;16.73;;;;;;;;;;4959125;29;20023;-76
2023/02/04 06:12:15;;;;;;;71.55;17.50;;;;;;;;;;4958230;29;20060;-80
2023/02/04 06:14:42;;;;;;;121.30;28.20;;;;;;;;;;4955285;29;20054;-80
2023/02/04 06:17:08;;;;;;;134.25;33.20;;;;;;;;;;4958603;29;20086;-78
2023/02/04 06:19:33;;;;;;;121.20;34.15;;;;;;;;;;4957735;29;20035;-79
2023/02/04 06:21:58;;;;;;;93.30;27.73;;;;;;;;;;4939481;29;20027;-78
2023/02/04 06:24:24;;;;;;;77.30;26.58;;;;;;;;;;4959546;29;20031;-76
2023/02/04 06:26:49;;;;;;;41.83;18.13;;;;;;;;;;4957719;29;20502;-80
2023/02/04 06:29:15;;;;;;;24.17;10.88;;;;;;;;;;4957393;29;20046;-79
2023/02/04 06:31:40;;;;;;;19.35;8.40;;;;;;;;;;4959928;28;20039;-78
2023/02/04 06:34:05;;;;;;;15.40;7.65;;;;;;;;;;4940359;29;20032;-79
2023/02/04 06:36:32;;;;;;;11.15;5.55;;;;;;;;;;4958266;29;20587;-78
2023/02/04 06:39:00;;;;;;;10.25;6.13;;;;;;;;;;4956248;29;20038;-79
2023/02/04 06:41:25;;;;;;;12.27;5.78;;;;;;;;;;4940745;29;20042;-77
2023/02/04 06:43:50;;;;;;;9.02;4.95;;;;;;;;;;4957739;28;20483;-78
2023/02/04 06:46:16;;;;;;;7.93;4.60;;;;;;;;;;4957987;28;20043;-80
2023/02/04 06:48:44;;;;;;;9.05;5.15;;;;;;;;;;4942394;29;20087;-77
2023/02/04 06:51:09;;;;;;;12.65;5.57;;;;;;;;;;4956636;29;20035;-77
2023/02/04 06:53:34;;;;;;;13.13;5.88;;;;;;;;;;4956647;28;20110;-78
2023/02/04 06:56:00;;;;;;;10.70;4.82;;;;;;;;;;4956884;29;20023;-81
2023/02/04 06:58:25;;;;;;;11.45;4.82;;;;;;;;;;4938659;29;20489;-78
2023/02/04 07:00:51;;;;;;;14.15;5.72;;;;;;;;;;4939237;29;20038;-78
2023/02/04 07:03:16;;;;;;;18.30;6.10;;;;;;;;;;4957532;28;20063;-75
2023/02/04 07:05:41;;;;;;;13.30;6.07;;;;;;;;;;4952534;29;20027;-78
2023/02/04 07:08:09;;;;;;;16.17;5.70;;;;;;;;;;4954888;29;20077;-78
2023/02/04 07:10:34;;;;;;;13.07;5.90;;;;;;;;;;4955160;29;20059;-79
2023/02/04 07:13:00;;;;;;;17.80;6.38;;;;;;;;;;4955480;28;20011;-77
2023/02/04 07:15:25;;;;;;;13.05;6.00;;;;;;;;;;4938243;29;20031;-78
2023/02/04 07:17:51;;;;;;;12.85;5.70;;;;;;;;;;4957339;29;20038;-80
2023/02/04 07:20:17;;;;;;;11.80;5.47;;;;;;;;;;4939842;29;20394;-79
2023/02/04 07:22:42;;;;;;;11.07;6.13;;;;;;;;;;4945832;28;20485;-80
2023/02/04 07:25:08;;;;;;;11.05;5.35;;;;;;;;;;4960591;28;20027;-81
2023/02/04 07:27:34;;;;;;;13.57;5.63;;;;;;;;;;4960787;28;20485;-78
2023/02/04 07:30:03;;;;;;;11.68;5.93;;;;;;;;;;4963377;29;20090;-79
2023/02/04 07:32:41;;;;;;;16.25;5.65;;;;;;;;;;4963591;29;20288;-80
2023/02/04 07:35:08;;;;;;;14.25;5.40;;;;;;;;;;4963745;29;20086;-78
2023/02/04 07:37:36;;;;;;;15.82;5.32;;;;;;;;;;4963389;28;20031;-79
2023/02/04 07:40:02;;;;;;;17.63;6.32;;;;;;;;;;4946303;29;20031;-80
2023/02/04 07:42:27;;;;;;;18.30;7.18;;;;;;;;;;4962766;28;20039;-76
2023/02/04 07:44:52;;;;;;;13.05;5.60;;;;;;;;;;4964551;29;20488;-79
2023/02/04 07:47:18;;;;;;;13.23;4.85;;;;;;;;;;4964376;28;20038;-81
2023/02/04 07:49:46;;;;;;;14.65;5.72;;;;;;;;;;4950307;29;20023;-80
2023/02/04 07:52:11;;;;;;;13.38;5.45;;;;;;;;;;4964033;29;20019;-79
2023/02/04 07:54:36;;;;;;;15.10;5.82;;;;;;;;;;4964086;29;20402;-79
2023/02/04 07:57:04;;;;;;;14.07;5.75;;;;;;;;;;4965725;29;20029;-80
2023/02/04 07:59:30;;;;;;;10.52;5.80;;;;;;;;;;4964206;29;20465;-78
2023/02/04 08:01:55;;;;;;;17.60;5.25;;;;;;;;;;4962236;28;20027;-79
2023/02/04 08:04:20;;;;;;;17.05;6.05;;;;;;;;;;4959249;29;20071;-78
2023/02/04 08:06:46;;;;;;;12.48;5.70;;;;;;;;;;4960048;28;20027;-78
2023/02/04 08:09:13;;;;;;;13.27;5.65;;;;;;;;;;4960803;28;20038;-79
2023/02/04 08:11:39;;;;;;;11.77;6.22;;;;;;;;;;4950137;29;20046;-80
2023/02/04 08:14:06;;;;;;;11.18;5.63;;;;;;;;;;4954728;29;20098;-78
2023/02/04 08:16:34;;;;;;;18.75;7.03;;;;;;;;;;4963748;28;20385;-79
2023/02/04 08:19:02;;;;;;;13.27;6.22;;;;;;;;;;4962513;28;20059;-78
2023/02/04 08:21:29;;;;;;;13.25;6.13;;;;;;;;;;4961319;28;20034;-79
2023/02/04 08:23:55;;;;;;;16.90;7.60;;;;;;;;;;4958974;29;20035;-79
2023/02/04 08:26:20;;;;;;;16.48;7.20;;;;;;;;;;4963600;29;20038;-80
2023/02/04 08:28:46;;;;;;;18.58;8.05;;;;;;;;;;4958615;29;20114;-78
2023/02/04 08:31:14;;;;;;;16.75;8.23;;;;;;;;;;4941829;29;20035;-76
2023/02/04 08:33:39;;;;;;;14.80;5.97;;;;;;;;;;4962203;29;20058;-78
2023/02/04 08:36:08;;;;;;;19.70;8.88;;;;;;;;;;4961703;28;20035;-79
2023/02/04 08:38:34;;;;;;;20.17;10.43;;;;;;;;;;4963334;28;20055;-78
2023/02/04 08:40:59;;;;;;;24.88;11.80;;;;;;;;;;4961283;28;20520;-78
2023/02/04 08:43:25;;;;;;;24.58;11.70;;;;;;;;;;4962211;28;20031;-79
2023/02/04 08:45:51;;;;;;;25.02;11.35;;;;;;;;;;4962250;28;20027;-80
2023/02/04 08:48:17;;;;;;;24.15;11.73;;;;;;;;;;4964161;28;20031;-77
2023/02/04 08:50:44;;;;;;;25.88;12.60;;;;;;;;;;4948262;29;20062;-80
2023/02/04 08:53:12;;;;;;;22.45;11.43;;;;;;;;;;4966317;28;20020;-78
2023/02/04 08:55:37;;;;;;;24.75;11.75;;;;;;;;;;4962342;29;20350;-78
2023/02/04 08:58:03;;;;;;;20.67;10.10;;;;;;;;;;4963115;29;20050;-78
2023/02/04 09:00:29;;;;;;;19.92;9.60;;;;;;;;;;4946401;29;20046;-80
2023/02/04 09:02:54;;;;;;;26.30;12.27;;;;;;;;;;4962647;28;20027;-78
2023/02/04 09:05:20;;;;;;;23.13;13.50;;;;;;;;;;4952315;29;20042;-79
2023/02/04 09:07:45;;;;;;;21.10;10.23;;;;;;;;;;4964982;29;20041;-77
2023/02/04 09:10:10;;;;;;;20.65;9.80;;;;;;;;;;4945242;29;20187;-78
2023/02/04 09:12:36;;;;;;;20.80;10.07;;;;;;;;;;4967239;28;20091;-80
2023/02/04 09:15:01;;;;;;;19.58;9.90;;;;;;;;;;4959602;28;20118;-79
2023/02/04 09:17:29;;;;;;;22.63;9.48;;;;;;;;;;4946556;28;20027;-79
2023/02/04 09:19:54;;;;;;;20.02;9.00;;;;;;;;;;4943887;28;20030;-80
2023/02/04 09:22:22;;;;;;;19.23;8.57;;;;;;;;;;4960870;28;20095;-77
2023/02/04 09:24:50;;;;;;;20.50;9.13;;;;;;;;;;4960860;29;20035;-78
2023/02/04 09:27:15;;;;;;;26.48;11.07;;;;;;;;;;4947411;29;20616;-78
2023/02/04 09:29:40;;;;;;;20.65;8.77;;;;;;;;;;4962823;28;20058;-80
2023/02/04 09:32:06;;;;;;;18.42;7.65;;;;;;;;;;4957846;28;20019;-78
2023/02/04 09:34:31;;;;;;;18.20;5.57;;;;;;;;;;4965508;28;20382;-79
2023/02/04 09:37:01;;;;;;;25.17;8.20;;;;;;;;;;4952397;29;20035;-77
2023/02/04 09:39:30;;;;;;;21.88;8.18;;;;;;;;;;4965694;28;20035;-78
2023/02/04 09:41:57;;;;;;;16.60;5.63;;;;;;;;;;4966419;28;20035;-79
2023/02/04 09:44:25;;;;;;;20.42;7.20;;;;;;;;;;4964642;28;20038;-77
2023/02/04 09:46:53;;;;;;;18.45;7.75;;;;;;;;;;4965581;28;20047;-78
2023/02/04 09:49:18;;;;;;;23.13;8.32;;;;;;;;;;4963928;28;20122;-78
2023/02/04 09:51:46;;;;;;;22.65;7.75;;;;;;;;;;4961150;29;20062;-79
2023/02/04 09:54:19;;;;;;;18.92;7.35;;;;;;;;;;4965811;28;20063;-77
2023/02/04 09:56:46;;;;;;;15.20;5.25;;;;;;;;;;4952933;29;20054;-79
2023/02/04 09:59:16;;;;;;;16.73;7.18;;;;;;;;;;4961503;28;20470;-77
2023/02/04 10:01:41;;;;;;;;;;;;;;;;;;4959499;29;20114;-77
2023/02/04 10:04:14;;;;;;;22.95;7.05;;;;;;;;;;4958685;29;20359;-76
2023/02/04 10:06:41;;;;;;;20.95;8.25;;;;;;;;;;4959011;29;20031;-79
2023/02/04 10:09:11;;;;;;;15.90;6.57;;;;;;;;;;4959667;29;20094;-78
2023/02/04 10:11:38;;;;;;;;;;;;;;;;;;4970918;28;20027;-75
2023/02/04 10:14:03;;;;;;;13.80;6.13;;;;;;;;;;4946955;28;19923;-76
2023/02/04 10:16:34;;;;;;;22.50;7.10;;;;;;;;;;4954043;28;20110;-78
2023/02/04 10:19:06;;;;;;;14.60;6.13;;;;;;;;;;4954273;28;20099;-78
2023/02/04 10:21:39;;;;;;;15.48;6.10;;;;;;;;;;4960434;28;20047;-77
2023/02/04 10:24:13;;;;;;;17.42;6.00;;;;;;;;;;4943670;29;20028;-79
2023/02/04 10:26:39;;;;;;;16.90;5.95;;;;;;;;;;4959243;29;20031;-77
2023/02/04 10:29:19;;;;;;;18.30;5.78;;;;;;;;;;4952788;28;20474;-76
2023/02/04 10:31:46;;;;;;;28.75;12.45;;;;;;;;;;4958351;28;20494;-77
2023/02/04 10:34:15;;;;;;;36.97;15.85;;;;;;;;;;4958642;28;20093;-78
2023/02/04 10:36:44;;;;;;;69.93;30.13;;;;;;;;;;4958139;28;20493;-78
2023/02/04 10:39:15;;;;;;;41.15;17.08;;;;;;;;;;4957946;28;20061;-80
2023/02/04 10:41:55;;;;;;;33.08;14.10;;;;;;;;;;4942023;29;20026;-80
2023/02/04 10:44:27;;;;;;;27.55;8.30;;;;;;;;;;4938103;29;20031;-78
2023/02/04 10:47:20;;;;;;;18.02;6.40;;;;;;;;;;4960426;28;20101;-78
2023/02/04 10:50:01;;;;;;;11.07;5.03;;;;;;;;;;4938501;29;20039;-80
2023/02/04 10:52:38;;;;;;;20.90;9.40;;;;;;;;;;4940210;28;20085;-78
2023/02/04 10:55:12;;;;;;;21.83;7.47;;;;;;;;;;4948443;28;20031;-79
2023/02/04 10:57:38;;;;;;;28.45;6.90;;;;;;;;;;4953267;29;20035;-77
2023/02/04 11:00:17;;;;;;;19.23;6.20;;;;;;;;;;4956304;28;20030;-79
2023/02/04 11:03:00;;;;;;;14.45;4.85;;;;;;;;;;4937482;29;20038;-77
2023/02/04 11:05:34;;;;;;;15.90;5.15;;;;;;;;;;4935637;29;20135;-79
2023/02/04 11:08:00;;;;;;;20.63;6.47;;;;;;;;;;4955303;28;20027;-76
2023/02/04 11:10:31;;;;;;;13.07;4.63;;;;;;;;;;4956045;29;20489;-79
2023/02/04 11:12:57;;;;;;;24.65;5.50;;;;;;;;;;4944673;28;20030;-77
2023/02/04 11:15:43;;;;;;;15.88;4.05;;;;;;;;;;4956156;28;20023;-79
2023/02/04 11:18:28;;;;;;;20.25;4.43;;;;;;;;;;4935365;29;20040;-78
2023/02/04 11:20:56;;;;;;;19.50;4.15;;;;;;;;;;4955021;28;20482;-77
2023/02/04 11:23:27;;;;;;;18.70;4.03;;;;;;;;;;4940339;29;20114;-77
2023/02/04 11:26:09;;;;;;;16.45;4.53;;;;;;;;;;4941059;29;20031;-79
2023/02/04 11:28:53;;;;;;;18.17;5.22;;;;;;;;;;4953091;28;20490;-77
2023/02/04 11:31:19;;;;;;;15.82;5.05;;;;;;;;;;4954595;28;20046;-79
2023/02/04 11:33:47;;;;;;;15.55;3.45;;;;;;;;;;4957964;28;20033;-79
2023/02/04 11:36:14;;;;;;;20.23;3.55;;;;;;;;;;4957174;28;20419;-78
2023/02/04 11:38:48;;;;;;;18.55;3.90;;;;;;;;;;4958039;28;20490;-79
2023/02/04 11:41:23;;;;;;;19.15;3.97;;;;;;;;;;4958009;29;20062;-77
2023/02/04 11:43:56;;;;;;;16.98;4.00;;;;;;;;;;4953665;29;20028;-78
2023/02/04 11:46:25;;;;;;;10.68;3.70;;;;;;;;;;4953777;28;20039;-79
2023/02/04 11:48:55;;;;;;;16.48;3.47;;;;;;;;;;4954942;28;20038;-77
2023/02/04 11:51:28;;;;;;;15.30;3.45;;;;;;;;;;4941713;29;20045;-77
2023/02/04 11:53:59;;;;;;;8.85;3.60;;;;;;;;;;4946414;28;20027;-79
2023/02/04 11:56:31;;;;;;;16.38;3.55;;;;;;;;;;4956034;28;20028;-78
2023/02/04 11:58:57;;;;;;;9.65;3.13;;;;;;;;;;4956038;28;20059;-77
2023/02/04 12:01:30;;;;;;;15.13;3.72;;;;;;;;;;4941737;28;20027;-76
2023/02/04 12:04:00;;;;;;;17.52;3.10;;;;;;;;;;4952136;29;20023;-78
2023/02/04 12:06:29;;;;;;;11.48;2.83;;;;;;;;;;4958962;28;20031;-78
2023/02/04 12:09:28;;;;;;;15.70;3.70;;;;;;;;;;4959335;29;20163;-78
2023/02/04 12:12:03;;;;;;;17.08;5.13;;;;;;;;;;4908414;29;20034;-80
2023/02/04 12:14:36;;;;;;;15.35;3.83;;;;;;;;;;4965236;28;20035;-77
2023/02/04 12:17:18;;;;;;;13.38;3.10;;;;;;;;;;4940825;28;20034;-78
2023/02/04 12:19:43;;;;;;;16.17;3.50;;;;;;;;;;4946492;29;20513;-78
2023/02/04 12:22:09;;;;;;;13.85;3.72;;;;;;;;;;4952460;28;20027;-78
2023/02/04 12:24:34;;;;;;;9.52;2.45;;;;;;;;;;4951940;28;20031;-76
2023/02/04 12:26:59;;;;;;;13.23;2.65;;;;;;;;;;4938507;29;20439;-78
2023/02/04 12:29:25;;;;;;;12.60;3.13;;;;;;;;;;4950517;28;20494;-79
2023/02/04 12:31:51;;;;;;;9.60;2.70;;;;;;;;;;4948740;28;20023;-77
2023/02/04 12:34:16;;;;;;;12.43;3.30;;;;;;;;;;4947248;29;20024;-77
2023/02/04 12:36:42;;;;;;;14.98;3.75;;;;;;;;;;4934968;29;20073;-77
2023/02/04 12:39:09;;;;;;;9.88;2.72;;;;;;;;;;4957179;28;20050;-75
2023/02/04 12:41:34;;;;;;;11.30;2.90;;;;;;;;;;4945614;29;20031;-76
2023/02/04 12:44:00;;;;;;;12.23;2.92;;;;;;;;;;4948313;29;20038;-77
2023/02/04 12:46:26;;;;;;;15.15;3.47;;;;;;;;;;4936464;29;20027;-76
2023/02/04 12:48:52;;;;;;;14.00;3.95;;;;;;;;;;4953172;28;20031;-76
2023/02/04 12:51:17;;;;;;;13.10;3.85;;;;;;;;;;4951621;28;20035;-76
2023/02/04 12:53:42;;;;;;;14.07;3.60;;;;;;;;;;4953977;28;20023;-77
2023/02/04 12:56:10;;;;;;;12.57;3.72;;;;;;;;;;4930225;29;20035;-77
2023/02/04 12:58:36;;;;;;;11.82;3.80;;;;;;;;;;4959138;28;20552;-77
2023/02/04 13:01:01;;;;;;;17.33;3.45;;;;;;;;;;4953960;28;20054;-77
2023/02/04 13:03:26;;;;;;;13.13;3.58;;;;;;;;;;4957194;28;20027;-78
2023/02/04 13:05:52;;;;;;;19.88;5.63;;;;;;;;;;4958014;28;20114;-78
2023/02/04 13:08:17;;;;;;;16.35;3.70;;;;;;;;;;4941936;28;21628;-77
2023/02/04 13:10:43;;;;;;;14.13;4.65;;;;;;;;;;4944609;28;20023;-76
2023/02/04 13:13:08;;;;;;;17.10;3.67;;;;;;;;;;4961551;28;20019;-77
2023/02/04 13:15:33;;;;;;;18.42;5.90;;;;;;;;;;4968709;28;20025;-78
2023/02/04 13:17:59;;;;;;;14.18;5.38;;;;;;;;;;4974735;28;20027;-77
2023/02/04 13:20:24;;;;;;;15.70;4.97;;;;;;;;;;4962141;28;20034;-77
2023/02/04 13:22:50;;;;;;;20.10;8.82;;;;;;;;;;4960666;28;20051;-79
2023/02/04 13:25:15;;;;;;;19.02;6.82;;;;;;;;;;4940743;29;20051;-78
2023/02/04 13:27:45;;;;;;;17.25;6.10;;;;;;;;;;4940320;29;20090;-77
2023/02/04 13:30:13;;;;;;;18.08;6.25;;;;;;;;;;4956832;29;20208;-78
2023/02/04 13:32:39;;;;;;;27.73;5.40;;;;;;;;;;4939977;28;20019;-77
2023/02/04 13:35:05;;;;;;;14.52;5.30;;;;;;;;;;4958085;28;20102;-77
2023/02/04 13:37:30;;;;;;;19.17;4.60;;;;;;;;;;4957989;29;20059;-76
2023/02/04 13:39:58;;;;;;;16.33;6.07;;;;;;;;;;4960559;28;20026;-77
2023/02/04 13:42:23;;;;;;;16.13;4.78;;;;;;;;;;4958202;29;20412;-76
2023/02/04 13:44:49;;;;;;;16.48;3.80;;;;;;;;;;4940819;29;20031;-79
2023/02/04 13:47:14;;;;;;;17.80;5.00;;;;;;;;;;4942307;29;20126;-80
2023/02/04 13:49:42;;;;;;;17.67;4.15;;;;;;;;;;4958982;28;20118;-77
2023/02/04 13:52:07;;;;;;;12.35;3.30;;;;;;;;;;4960457;28;20016;-78
2023/02/04 13:54:36;;;;;;;12.60;3.42;;;;;;;;;;4958774;28;20120;-79
2023/02/04 13:57:01;;;;;;;16.95;4.13;;;;;;;;;;4943659;29;20027;-78
2023/02/04 13:59:27;;;;;;;10.75;2.88;;;;;;;;;;4959397;29;20027;-79
2023/02/04 14:01:59;;;;;;;16.02;4.28;;;;;;;;;;4940916;29;20038;-79
2023/02/04 14:04:28;;;;;;;57.17;21.42;;;;;;;;;;4955528;28;20098;-79
2023/02/04 14:06:56;;;;;;;45.72;18.75;;;;;;;;;;4942599;29;20027;-79
2023/02/04 14:09:24;;;;;;;31.80;11.13;;;;;;;;;;4959133;29;20090;-79
2023/02/04 14:11:50;;;;;;;70.57;25.98;;;;;;;;;;4958420;28;20023;-78
2023/02/04 14:14:16;;;;;;;135.43;43.35;;;;;;;;;;4958565;29;20086;-80
2023/02/04 14:16:41;;;;;;;103.13;32.35;;;;;;;;;;4949884;28;20026;-80
2023/02/04 14:19:08;;;;;;;56.63;17.58;;;;;;;;;;4963572;28;20023;-78
2023/02/04 14:21:33;;;;;;;38.00;10.38;;;;;;;;;;4963663;28;20027;-77
2023/02/04 14:23:59;;;;;;;27.88;6.05;;;;;;;;;;4945541;28;20038;-78
2023/02/04 14:26:25;;;;;;;36.42;11.25;;;;;;;;;;4960802;28;20035;-79
2023/02/04 14:28:50;;;;;;;35.92;11.30;;;;;;;;;;4960994;29;20485;-79
2023/02/04 14:31:19;;;;;;;21.17;6.88;;;;;;;;;;4958320;29;20035;-78
2023/02/04 14:33:45;;;;;;;17.40;4.43;;;;;;;;;;4942559;29;20031;-80